Latest Weather Observations for Moomba Airport

IDS60801

Issued at 4:01 pm CST Sunday 11 April 2021 (issued every 10 minutes, with the page automatically refreshed every 10 minutes)

About weather observations | Map of weather stations | Latest weather observations for SA | Other Formats
Station Details ID: 017123 Name: MOOMBA AIRPORT Lat: -28.10 Lon: 140.20 Height: 37.8 m
Data from the previous 72 hours. | See also: Recent months at Moomba Airport
Date/Time
CST
Temp
°C
App
Temp
°C
Dew
Point
°C
Rel
Hum
%
Delta-T
°C
Wind Press
QNH
hPa
Press
MSL
hPa
Rain since
9am
mm
Dir  Spd
km/h
Gust
km/h
Spd
kts
Gust
kts
11/04:00pm 21.7 15.8 3.9 31 8.6 SSE 24 33 13 18 1019.2 1019.1 0.0
11/03:30pm 21.3 15.9 4.4 33 8.2 SSE 22 32 12 17 1019.3 1019.2 0.0
11/03:00pm 21.7 16.3 4.3 32 8.5 SSE 22 32 12 17 1019.3 1019.2 0.0
11/02:30pm 21.5 15.7 4.6 33 8.3 SSE 24 33 13 18 1019.4 1019.3 0.0
11/02:00pm 21.2 15.4 4.3 33 8.2 SSE 24 35 13 19 1019.5 1019.4 0.0
11/01:30pm 21.3 15.6 4.8 34 8.1 SE 24 32 13 17 1019.8 1019.7 0.0
11/01:00pm 20.6 14.8 4.6 35 7.8 SSE 24 33 13 18 1020.3 1020.2 0.0
11/12:30pm 20.5 14.3 4.1 34 7.9 S 26 35 14 19 1020.8 1020.7 0.0
11/12:00pm 20.4 14.7 4.8 36 7.6 SE 24 33 13 18 1021.1 1021.0 0.0
11/11:30am 20.7 14.7 5.1 36 7.6 SE 26 39 14 21 1021.4 1021.3 0.0
11/11:00am 20.1 13.7 5.0 37 7.4 SE 28 37 15 20 1021.7 1021.6 0.0
11/10:30am 19.3 12.6 5.4 40 6.8 SE 30 39 16 21 1021.8 1021.7 0.0
11/10:00am 18.9 12.6 5.7 42 6.5 SE 28 43 15 23 1021.9 1021.8 0.0
11/09:30am 18.4 11.7 5.6 43 6.2 SSE 30 44 16 24 1022.1 1022.0 0.0
11/09:00am 18.0 11.4 5.9 45 5.9 SE 30 43 16 23 1021.9 1021.8 0.0
11/08:58am 18.2 11.5 5.8 44 6.1 SE 30 43 16 23 1021.8 1021.7 0.0
11/08:30am 17.8 10.8 6.0 46 5.8 SSE 32 43 17 23 1021.5 1021.4 0.0
11/08:27am 17.7 11.1 5.9 46 5.8 SSE 30 43 16 23 1021.4 1021.3 0.0
11/08:00am 16.6 10.5 6.7 52 4.9 SSE 28 35 15 19 1021.1 1021.0 0.0
11/07:30am 15.8 10.5 6.8 55 4.4 SSE 24 33 13 18 1020.5 1020.4 0.0
11/07:00am 15.1 10.7 7.4 60 3.8 SSE 20 28 11 15 1020.1 1020.0 0.0
11/06:30am 14.9 10.8 7.9 63 3.5 SSE 19 24 10 13 1019.5 1019.4 0.0
11/06:00am 15.1 11.4 8.1 63 3.5 SSE 17 22 9 12 1019.0 1018.9 0.0
11/05:30am 15.6 11.4 8.1 61 3.8 S 20 28 11 15 1018.6 1018.5 0.0
11/05:00am 16.0 11.0 8.2 60 3.9 S 24 33 13 18 1018.2 1018.1 0.0
11/04:30am 16.4 10.3 8.4 59 4.1 S 30 39 16 21 1017.9 1017.8 0.0
11/04:00am 16.6 10.6 8.6 59 4.1 S 30 37 16 20 1017.4 1017.3 0.0
11/03:30am 15.2 11.1 7.7 61 3.7 S 19 24 10 13 1017.1 1017.0 0.0
11/03:00am 15.1 11.6 7.4 60 3.8 S 15 20 8 11 1016.9 1016.8 0.0
11/02:30am 14.8 11.7 7.1 60 3.8 S 13 20 7 11 1016.9 1016.8 0.0
11/02:00am 15.3 12.2 7.1 58 4.0 SSW 13 19 7 10 1016.8 1016.7 0.0
11/01:30am 15.8 12.7 7.1 56 4.3 SSW 13 20 7 11 1016.8 1016.7 0.0
11/01:00am 16.1 12.9 6.8 54 4.6 SSW 13 17 7 9 1016.7 1016.6 0.0
11/12:30am 16.3 13.1 6.7 53 4.7 SSW 13 17 7 9 1016.7 1016.6 0.0
11/12:00am 16.7 13.0 6.2 50 5.1 S 15 19 8 10 1016.7 1016.6 0.0
 
Date/Time
CST
Temp
°C
App
Temp
°C
Dew
Point
°C
Rel
Hum
%
Delta-T
°C
Wind Press
QNH
hPa
Press
MSL
hPa
Rain since
9am
mm
Dir  Spd
km/h
Gust
km/h
Spd
kts
Gust
kts
10/11:30pm 16.6 13.2 6.1 50 5.1 SSW 13 17 7 9 1016.7 1016.6 0.0
10/11:00pm 16.9 13.9 5.8 48 5.4 SSW 11 15 6 8 1016.6 1016.5 0.0
10/10:30pm 17.4 14.3 5.4 45 5.8 S 11 17 6 9 1016.6 1016.5 0.0
10/10:00pm 17.8 14.7 5.4 44 6.0 S 11 17 6 9 1016.5 1016.4 0.0
10/09:30pm 18.3 14.7 4.8 41 6.5 S 13 17 7 9 1016.3 1016.2 0.0
10/09:00pm 18.7 15.0 4.5 39 6.8 S 13 17 7 9 1016.1 1016.0 0.0
10/08:30pm 19.5 15.0 4.4 37 7.3 S 17 22 9 12 1015.7 1015.6 0.0
10/08:00pm 19.9 14.4 4.0 35 7.6 S 22 28 12 15 1015.4 1015.3 0.0
10/07:30pm 20.3 15.4 3.9 34 7.8 S 19 24 10 13 1015.1 1015.0 0.0
10/07:00pm 20.8 15.8 4.4 34 8.0 S 20 24 11 13 1014.7 1014.6 0.0
10/06:30pm 21.5 16.6 5.0 34 8.1 S 20 28 11 15 1014.3 1014.2 0.0
10/06:00pm 22.4 17.6 5.8 34 8.4 S 20 28 11 15 1013.8 1013.7 0.0
10/05:30pm 23.1 18.2 5.1 31 9.0 S 20 32 11 17 1013.4 1013.3 0.0
10/05:00pm 23.7 18.1 5.6 31 9.2 SSW 24 35 13 19 1013.1 1013.0 0.0
10/04:30pm 24.5 18.4 6.7 32 9.2 SSW 28 39 15 21 1012.9 1012.8 0.0
10/04:00pm 25.0 19.1 7.6 33 9.2 SSW 28 39 15 21 1012.7 1012.6 0.0
10/03:30pm 25.4 20.6 8.8 35 9.0 S 24 37 13 20 1012.5 1012.4 0.0
10/03:00pm 25.6 20.4 9.0 35 9.0 S 26 37 14 20 1012.5 1012.4 0.0
10/02:30pm 25.7 21.1 9.5 36 8.9 SSW 24 33 13 18 1012.3 1012.2 0.0
10/02:00pm 25.9 20.9 9.7 36 8.9 S 26 33 14 18 1012.5 1012.4 0.0
10/01:30pm 25.7 21.1 9.5 36 8.9 S 24 35 13 19 1012.6 1012.5 0.0
10/01:00pm 25.8 22.1 10.0 37 8.8 S 20 30 11 16 1012.7 1012.6 0.0
10/12:30pm 25.3 20.9 10.4 39 8.3 S 24 33 13 18 1013.0 1012.9 0.0
10/12:00pm 24.8 20.3 9.9 39 8.2 S 24 32 13 17 1013.3 1013.2 0.0
10/11:30am 24.4 19.1 9.9 40 8.0 S 28 39 15 21 1013.5 1013.4 0.0
10/11:00am 24.8 19.3 10.7 41 7.9 SSE 30 41 16 22 1013.8 1013.7 0.0
10/10:30am 24.0 19.3 10.7 43 7.4 S 26 35 14 19 1014.0 1013.9 0.0
10/10:00am 23.1 18.4 10.5 45 6.9 SSE 26 37 14 20 1013.9 1013.8 0.0
10/09:30am 22.6 16.7 10.4 46 6.7 SSE 32 44 17 24 1013.9 1013.8 0.0
10/09:00am 21.6 16.4 10.4 49 6.1 SSE 28 41 15 22 1013.6 1013.5 0.0
10/08:30am 21.6 16.2 11.0 51 5.9 S 30 41 16 22 1013.2 1013.1 0.0
10/08:00am 21.2 18.0 11.8 55 5.3 S 20 30 11 16 1012.5 1012.4 0.0
10/07:30am 20.9 18.5 12.6 59 4.7 S 17 22 9 12 1012.0 1011.9 0.0
10/07:00am 20.5 18.4 12.5 60 4.5 SSW 15 19 8 10 1012.2 1012.1 0.0
10/06:30am 20.1 18.3 12.1 60 4.5 SSW 13 17 7 9 1011.4 1011.3 0.0
10/06:00am 20.4 18.9 11.9 58 4.7 S 11 17 6 9 1010.9 1010.8 0.0
10/05:30am 20.6 18.6 11.5 56 5.0 S 13 20 7 11 1010.2 1010.1 0.0
10/05:00am 20.1 18.4 11.3 57 4.8 SSW 11 15 6 8 1010.4 1010.3 0.0
10/04:30am 19.4 17.9 10.4 56 4.9 SSW 9 11 5 6 1010.1 1010.0 0.0
10/04:00am 19.9 17.9 10.0 53 5.3 S 11 15 6 8 1009.8 1009.6 0.0
10/03:30am 19.8 18.0 9.4 51 5.5 SSW 9 13 5 7 1009.8 1009.6 0.0
10/03:00am 19.3 17.6 8.3 49 5.7 WSW 7 9 4 5 1009.8 1009.6 0.0
10/02:30am 20.2 17.8 6.9 42 6.8 SW 9 13 5 7 1009.6 1009.4 0.0
10/02:00am 21.5 19.1 7.0 39 7.4 SSE 9 11 5 6 1009.3 1009.1 0.0
10/01:30am 21.1 18.8 5.5 36 7.8 SSW 7 9 4 5 1009.4 1009.2 0.0
10/01:00am 21.8 19.7 5.7 35 8.1 SSE 6 17 3 9 1009.7 1009.5 0.0
10/12:30am 20.5 18.3 6.1 39 7.2 SW 7 9 4 5 1009.7 1009.5 0.0
10/12:00am 21.7 19.8 4.7 33 8.4 WSW 4 11 2 6 1009.8 1009.6 0.0
 
Date/Time
CST
Temp
°C
App
Temp
°C
Dew
Point
°C
Rel
Hum
%
Delta-T
°C
Wind Press
QNH
hPa
Press
MSL
hPa
Rain since
9am
mm
Dir  Spd
km/h
Gust
km/h
Spd
kts
Gust
kts
09/11:30pm 21.7 19.3 4.3 32 8.5 NNW 6 9 3 5 1009.4 1009.2 0.0
09/11:00pm 22.6 21.3 4.2 30 9.0 CALM 0 0 0 0 1009.6 1009.4 0.0
09/10:30pm 22.3 21.4 6.1 35 8.2 CALM 0 0 0 0 1009.7 1009.5 0.0
09/10:00pm 23.0 22.2 6.7 35 8.4 CALM 0 0 0 0 1010.0 1009.8 0.0
09/09:30pm 23.6 22.2 3.5 27 9.8 CALM 0 0 0 0 1009.9 1009.7 0.0
09/09:00pm 25.2 23.8 3.8 25 10.6 CALM 0 0 0 0 1009.8 1009.6 0.0
09/08:30pm 24.3 23.3 5.6 30 9.5 CALM 0 0 0 0 1009.6 1009.4 0.0
09/08:00pm 24.5 23.7 6.7 32 9.2 CALM 0 0 0 0 1009.4 1009.2 0.0
09/07:30pm 25.6 24.8 6.3 29 10.0 CALM 0 0 0 0 1009.2 1009.0 0.0
09/07:00pm 26.8 25.8 5.7 26 10.9 CALM 0 0 0 0 1008.9 1008.7 0.0
09/06:30pm 27.3 26.3 7.2 28 10.7 WSW 2 6 1 3 1008.5 1008.3 0.0
09/06:00pm 30.5 28.1 4.3 19 13.6 SW 6 7 3 4 1008.4 1008.2 0.0
09/05:30pm 32.4 29.7 2.5 15 15.2 WSW 6 7 3 4 1008.2 1008.0 0.0
09/05:00pm 33.3 30.0 0.1 12 16.3 W 7 9 4 5 1008.0 1007.8 0.0
09/04:30pm 33.7 30.5 -0.8 11 16.7 SW 6 9 3 5 1007.9 1007.7 0.0
09/04:00pm 34.1 30.3 -0.5 11 16.9 W 9 17 5 9 1007.9 1007.7 0.0
09/03:30pm 33.7 30.8 -0.8 11 16.7 WNW 4 11 2 6 1007.8 1007.6 0.0
09/03:00pm 33.6 29.2 -2.2 10 16.9 W 11 19 6 10 1008.0 1007.8 0.0
09/02:30pm 33.8 30.4 -2.0 10 17.0 WSW 6 15 3 8 1008.1 1007.9 0.0
09/02:00pm 33.5 29.3 -1.0 11 16.6 WSW 11 20 6 11 1008.6 1008.4 0.0
09/01:30pm 33.7 30.1 0.4 12 16.5 W 9 19 5 10 1008.9 1008.7 0.0
09/01:00pm 33.3 30.0 2.2 14 15.8 W 9 15 5 8 1009.3 1009.1 0.0
09/12:30pm 32.8 30.3 3.7 16 15.1 WNW 6 15 3 8 1009.8 1009.6 0.0
09/12:00pm 32.0 29.3 3.9 17 14.6 WSW 7 13 4 7 1010.4 1010.3 0.0
09/11:30am 31.2 29.1 5.6 20 13.6 W 6 11 3 6 1011.0 1010.9 0.0
09/11:00am 30.3 28.3 6.2 22 12.8 W 6 9 3 5 1011.4 1011.3 0.0
09/10:30am 29.0 27.1 7.6 26 11.6 SW 7 13 4 7 1011.7 1011.6 0.0
09/10:00am 27.5 26.0 8.4 30 10.4 WSW 6 9 3 5 1011.7 1011.6 0.0
09/09:30am 26.2 24.6 8.7 33 9.5 SW 7 11 4 6 1011.9 1011.8 0.0
09/09:00am 25.7 24.1 6.3 29 10.1 WNW 4 7 2 4 1011.3 1011.2 0.0
09/08:30am 24.1 23.3 6.4 32 9.1 CALM 0 4 0 2 1011.5 1011.4 0.0
09/08:00am 22.5 20.7 7.1 37 8.0 NW 6 7 3 4 1011.1 1011.0 0.0
09/07:30am 20.1 18.6 9.1 49 5.8 WNW 7 9 4 5 1010.7 1010.6 0.0
09/07:00am 17.5 15.9 8.9 57 4.5 WNW 7 9 4 5 1010.5 1010.4 0.0
09/06:30am 16.9 14.9 8.6 58 4.3 WNW 9 11 5 6 1010.3 1010.2 0.0
09/06:00am 17.1 15.1 8.8 58 4.3 W 9 9 5 5 1010.1 1010.0 0.0
09/05:30am 16.9 15.0 9.1 60 4.1 W 9 9 5 5 1009.7 1009.5 0.0
09/05:00am 17.4 15.9 9.1 58 4.3 WSW 7 9 4 5 1009.3 1009.1 0.0
09/04:30am 17.2 15.3 9.1 59 4.2 WSW 9 11 5 6 1009.2 1009.0 0.0
09/04:00am 18.1 18.0 9.5 57 4.5 CALM 0 0 0 0 1009.0 1008.8 0.0
09/03:30am 18.6 18.3 8.8 53 5.1 CALM 0 0 0 0 1008.9 1008.7 0.0
09/03:00am 19.1 17.5 8.7 51 5.4 W 7 7 4 4 1009.1 1008.9 0.0
09/02:30am 19.2 18.0 9.4 53 5.2 W 6 9 3 5 1009.1 1008.9 0.0
09/02:00am 19.6 19.0 8.9 50 5.6 W 2 6 1 3 1009.2 1009.0 0.0
09/01:30am 19.3 18.0 9.2 52 5.3 W 6 7 3 4 1009.6 1009.4 0.0
09/01:00am 19.5 19.5 9.7 53 5.2 CALM 0 0 0 0 1009.7 1009.5 0.0
09/12:30am 20.9 20.7 8.9 46 6.4 CALM 0 0 0 0 1010.2 1010.1 0.0
09/12:00am 21.1 20.8 8.7 45 6.6 CALM 0 0 0 0 1010.0 1009.8 0.0
 
Date/Time
CST
Temp
°C
App
Temp
°C
Dew
Point
°C
Rel
Hum
%
Delta-T
°C
Wind Press
QNH
hPa
Press
MSL
hPa
Rain since
9am
mm
Dir  Spd
km/h
Gust
km/h
Spd
kts
Gust
kts
08/11:30pm 20.6 20.1 9.2 48 6.1 SW 2 6 1 3 1010.3 1010.2 0.0
08/11:00pm 21.7 21.0 9.9 47 6.4 SW 4 9 2 5 1010.5 1010.4 0.0
08/10:30pm 21.8 21.9 10.3 48 6.3 CALM 0 0 0 0 1010.6 1010.5 0.0
08/10:00pm 22.4 22.5 10.2 46 6.7 CALM 0 0 0 0 1010.6 1010.5 0.0
08/09:30pm 23.5 23.4 9.5 41 7.6 CALM 0 0 0 0 1010.6 1010.5 0.0
08/09:00pm 22.7 22.9 10.5 46 6.7 CALM 0 0 0 0 1010.5 1010.4 0.0
08/08:30pm 24.0 22.7 9.9 41 7.7 S 7 9 4 5 1010.4 1010.3 0.0
08/08:00pm 25.5 23.7 9.3 36 8.9 S 9 11 5 6 1010.2 1010.1 0.0
08/07:30pm 25.8 24.4 9.6 36 8.9 SSW 7 9 4 5 1009.7 1009.5 0.0
08/07:00pm 26.8 25.2 8.7 32 9.9 SSW 7 9 4 5 1009.3 1009.1 0.0
08/06:30pm 27.8 25.8 8.6 30 10.5 SSW 9 9 5 5 1009.0 1008.8 0.0
08/06:00pm 29.4 27.7 8.5 27 11.5 SSW 7 9 4 5 1008.8 1008.6 0.0
08/05:30pm 31.0 28.6 6.8 22 13.1 SW 9 13 5 7 1008.6 1008.4 0.0
08/05:00pm 31.8 28.4 6.1 20 13.8 SW 13 17 7 9 1008.3 1008.1 0.0
08/04:30pm 32.2 29.7 6.4 20 14.0 WSW 9 15 5 8 1008.4 1008.2 0.0

Other formats

Comma delimited format used in spreadsheet applications
http://www.bom.gov.au/fwo/IDS60801/IDS60801.95481.axf

JavaScript Object Notation format (JSON) in row-major order
http://www.bom.gov.au/fwo/IDS60801/IDS60801.95481.json

Data quality

Most of these data are generated automatically and are frequently updated. Quality checks on data are not normally performed. It is possible for incorrect values to appear. Refer to information at About Latest Weather Observations and please check the disclaimer before using these data.